sensor_id;sensor_type;location;lat;lon;timestamp;P1;durP1;ratioP1;P2;durP2;ratioP2
4885;SDS011;2457;51.788;6.136;2022-08-04T00:01:21;8.40;;;1.97;;
4885;SDS011;2457;51.788;6.136;2022-08-04T00:03:52;5.23;;;2.47;;
4885;SDS011;2457;51.788;6.136;2022-08-04T00:08:45;5.03;;;1.70;;
4885;SDS011;2457;51.788;6.136;2022-08-04T00:11:14;8.80;;;2.70;;
4885;SDS011;2457;51.788;6.136;2022-08-04T00:13:43;6.67;;;2.03;;
4885;SDS011;2457;51.788;6.136;2022-08-04T00:16:10;9.67;;;2.03;;
4885;SDS011;2457;51.788;6.136;2022-08-04T00:18:40;5.50;;;2.20;;
4885;SDS011;2457;51.788;6.136;2022-08-04T00:21:09;5.03;;;1.73;;
4885;SDS011;2457;51.788;6.136;2022-08-04T00:23:36;10.00;;;1.97;;
4885;SDS011;2457;51.788;6.136;2022-08-04T00:26:04;4.10;;;1.73;;
4885;SDS011;2457;51.788;6.136;2022-08-04T00:28:32;7.43;;;2.03;;
4885;SDS011;2457;51.788;6.136;2022-08-04T00:31:02;4.13;;;1.60;;
4885;SDS011;2457;51.788;6.136;2022-08-04T00:33:31;5.57;;;2.13;;
4885;SDS011;2457;51.788;6.136;2022-08-04T00:35:59;3.73;;;1.50;;
4885;SDS011;2457;51.788;6.136;2022-08-04T00:38:26;5.33;;;2.17;;
4885;SDS011;2457;51.788;6.136;2022-08-04T00:40:59;4.97;;;2.13;;
4885;SDS011;2457;51.788;6.136;2022-08-04T00:43:30;3.97;;;1.50;;
4885;SDS011;2457;51.788;6.136;2022-08-04T00:48:31;4.93;;;1.87;;
4885;SDS011;2457;51.788;6.136;2022-08-04T00:50:59;4.27;;;1.53;;
4885;SDS011;2457;51.788;6.136;2022-08-04T00:56:01;4.50;;;1.80;;
4885;SDS011;2457;51.788;6.136;2022-08-04T01:01:01;6.30;;;1.73;;
4885;SDS011;2457;51.788;6.136;2022-08-04T01:11:48;6.30;;;1.87;;
4885;SDS011;2457;51.788;6.136;2022-08-04T01:14:15;6.53;;;2.03;;
4885;SDS011;2457;51.788;6.136;2022-08-04T01:16:54;5.43;;;2.27;;
4885;SDS011;2457;51.788;6.136;2022-08-04T01:22:16;7.90;;;1.90;;
4885;SDS011;2457;51.788;6.136;2022-08-04T01:24:50;5.87;;;1.80;;
4885;SDS011;2457;51.788;6.136;2022-08-04T01:27:19;5.07;;;1.97;;
4885;SDS011;2457;51.788;6.136;2022-08-04T01:29:48;5.30;;;1.80;;
4885;SDS011;2457;51.788;6.136;2022-08-04T01:32:30;4.77;;;1.77;;
4885;SDS011;2457;51.788;6.136;2022-08-04T01:35:21;4.53;;;1.53;;
4885;SDS011;2457;51.788;6.136;2022-08-04T01:40:03;9.70;;;1.43;;
4885;SDS011;2457;51.788;6.136;2022-08-04T01:42:32;5.80;;;1.70;;
4885;SDS011;2457;51.788;6.136;2022-08-04T01:45:00;6.37;;;1.83;;
4885;SDS011;2457;51.788;6.136;2022-08-04T01:47:29;3.87;;;1.80;;
4885;SDS011;2457;51.788;6.136;2022-08-04T01:50:00;5.87;;;1.90;;
4885;SDS011;2457;51.788;6.136;2022-08-04T01:52:25;3.97;;;1.50;;
4885;SDS011;2457;51.788;6.136;2022-08-04T01:54:53;5.87;;;2.03;;
4885;SDS011;2457;51.788;6.136;2022-08-04T01:57:21;9.10;;;2.10;;
4885;SDS011;2457;51.788;6.136;2022-08-04T01:59:50;4.93;;;1.90;;
4885;SDS011;2457;51.788;6.136;2022-08-04T02:02:20;7.60;;;1.50;;
4885;SDS011;2457;51.788;6.136;2022-08-04T02:04:46;8.53;;;2.00;;
4885;SDS011;2457;51.788;6.136;2022-08-04T02:07:16;6.90;;;1.53;;
4885;SDS011;2457;51.788;6.136;2022-08-04T02:09:46;8.57;;;1.63;;
4885;SDS011;2457;51.788;6.136;2022-08-04T02:14:58;12.20;;;2.13;;
4885;SDS011;2457;51.788;6.136;2022-08-04T02:17:21;4.50;;;1.47;;
4885;SDS011;2457;51.788;6.136;2022-08-04T02:20:00;5.83;;;2.07;;
4885;SDS011;2457;51.788;6.136;2022-08-04T02:22:27;8.40;;;1.87;;
4885;SDS011;2457;51.788;6.136;2022-08-04T02:25:06;7.80;;;2.17;;
4885;SDS011;2457;51.788;6.136;2022-08-04T02:28:09;7.07;;;1.67;;
4885;SDS011;2457;51.788;6.136;2022-08-04T02:30:03;8.10;;;1.97;;
4885;SDS011;2457;51.788;6.136;2022-08-04T02:32:31;9.70;;;1.83;;
4885;SDS011;2457;51.788;6.136;2022-08-04T02:35:35;5.90;;;2.20;;
4885;SDS011;2457;51.788;6.136;2022-08-04T02:37:36;6.30;;;1.73;;
4885;SDS011;2457;51.788;6.136;2022-08-04T02:40:04;7.83;;;1.73;;
4885;SDS011;2457;51.788;6.136;2022-08-04T02:42:32;5.20;;;1.87;;
4885;SDS011;2457;51.788;6.136;2022-08-04T02:45:00;6.83;;;1.70;;
4885;SDS011;2457;51.788;6.136;2022-08-04T02:47:27;10.67;;;1.97;;
4885;SDS011;2457;51.788;6.136;2022-08-04T02:49:55;7.70;;;1.80;;
4885;SDS011;2457;51.788;6.136;2022-08-04T02:52:23;6.50;;;1.80;;
4885;SDS011;2457;51.788;6.136;2022-08-04T02:54:52;5.73;;;1.83;;
4885;SDS011;2457;51.788;6.136;2022-08-04T02:57:20;6.80;;;2.03;;
4885;SDS011;2457;51.788;6.136;2022-08-04T03:02:28;3.40;;;1.17;;
4885;SDS011;2457;51.788;6.136;2022-08-04T03:04:56;4.50;;;1.60;;
4885;SDS011;2457;51.788;6.136;2022-08-04T03:15:54;6.30;;;2.00;;
4885;SDS011;2457;51.788;6.136;2022-08-04T03:18:36;10.07;;;4.10;;
4885;SDS011;2457;51.788;6.136;2022-08-04T03:26:41;7.60;;;1.70;;
4885;SDS011;2457;51.788;6.136;2022-08-04T03:34:27;10.48;;;2.10;;
4885;SDS011;2457;51.788;6.136;2022-08-04T03:47:21;7.53;;;1.93;;
4885;SDS011;2457;51.788;6.136;2022-08-04T03:52:42;6.50;;;2.00;;
4885;SDS011;2457;51.788;6.136;2022-08-04T04:03:22;6.80;;;2.03;;
4885;SDS011;2457;51.788;6.136;2022-08-04T04:11:12;9.80;;;2.10;;
4885;SDS011;2457;51.788;6.136;2022-08-04T04:19:14;6.57;;;1.70;;
4885;SDS011;2457;51.788;6.136;2022-08-04T04:21:42;16.60;;;1.93;;
4885;SDS011;2457;51.788;6.136;2022-08-04T04:32:19;10.50;;;2.57;;
4885;SDS011;2457;51.788;6.136;2022-08-04T04:34:52;8.53;;;1.70;;
4885;SDS011;2457;51.788;6.136;2022-08-04T04:40:02;5.90;;;1.73;;
4885;SDS011;2457;51.788;6.136;2022-08-04T04:47:57;4.83;;;1.70;;
4885;SDS011;2457;51.788;6.136;2022-08-04T04:50:25;9.33;;;2.10;;
4885;SDS011;2457;51.788;6.136;2022-08-04T04:52:57;9.43;;;2.10;;
4885;SDS011;2457;51.788;6.136;2022-08-04T04:55:21;8.90;;;1.77;;
4885;SDS011;2457;51.788;6.136;2022-08-04T04:57:50;9.03;;;2.07;;
4885;SDS011;2457;51.788;6.136;2022-08-04T05:00:18;6.37;;;1.73;;
4885;SDS011;2457;51.788;6.136;2022-08-04T05:05:29;7.07;;;2.17;;
4885;SDS011;2457;51.788;6.136;2022-08-04T05:08:09;11.77;;;2.20;;
4885;SDS011;2457;51.788;6.136;2022-08-04T05:10:37;7.80;;;1.90;;
4885;SDS011;2457;51.788;6.136;2022-08-04T05:15:46;5.07;;;1.40;;
4885;SDS011;2457;51.788;6.136;2022-08-04T05:18:18;8.63;;;1.97;;
4885;SDS011;2457;51.788;6.136;2022-08-04T05:20:44;7.47;;;1.90;;
4885;SDS011;2457;51.788;6.136;2022-08-04T05:23:13;6.07;;;1.77;;
4885;SDS011;2457;51.788;6.136;2022-08-04T05:25:52;5.60;;;2.10;;
4885;SDS011;2457;51.788;6.136;2022-08-04T05:31:04;7.80;;;2.27;;
4885;SDS011;2457;51.788;6.136;2022-08-04T05:33:26;7.93;;;2.13;;
4885;SDS011;2457;51.788;6.136;2022-08-04T05:35:58;8.23;;;2.30;;
4885;SDS011;2457;51.788;6.136;2022-08-04T05:38:26;11.20;;;3.00;;
4885;SDS011;2457;51.788;6.136;2022-08-04T05:40:54;5.53;;;2.07;;
4885;SDS011;2457;51.788;6.136;2022-08-04T05:43:22;6.83;;;2.00;;
4885;SDS011;2457;51.788;6.136;2022-08-04T05:45:50;8.40;;;2.07;;
4885;SDS011;2457;51.788;6.136;2022-08-04T05:48:18;7.60;;;2.00;;
4885;SDS011;2457;51.788;6.136;2022-08-04T05:50:45;6.93;;;2.00;;
4885;SDS011;2457;51.788;6.136;2022-08-04T05:53:13;6.83;;;2.40;;
4885;SDS011;2457;51.788;6.136;2022-08-04T05:55:41;10.30;;;2.43;;
4885;SDS011;2457;51.788;6.136;2022-08-04T05:58:09;9.73;;;2.00;;
4885;SDS011;2457;51.788;6.136;2022-08-04T06:00:36;5.13;;;1.50;;
4885;SDS011;2457;51.788;6.136;2022-08-04T06:03:04;8.60;;;2.07;;
4885;SDS011;2457;51.788;6.136;2022-08-04T06:05:32;4.70;;;2.10;;
4885;SDS011;2457;51.788;6.136;2022-08-04T06:07:59;7.43;;;2.13;;
4885;SDS011;2457;51.788;6.136;2022-08-04T06:10:27;7.57;;;1.80;;
4885;SDS011;2457;51.788;6.136;2022-08-04T06:12:56;5.87;;;1.90;;
4885;SDS011;2457;51.788;6.136;2022-08-04T06:15:24;5.40;;;1.67;;
4885;SDS011;2457;51.788;6.136;2022-08-04T06:17:53;7.77;;;2.20;;
4885;SDS011;2457;51.788;6.136;2022-08-04T06:20:22;8.73;;;2.53;;
4885;SDS011;2457;51.788;6.136;2022-08-04T06:22:51;11.17;;;2.30;;
4885;SDS011;2457;51.788;6.136;2022-08-04T06:25:21;5.40;;;1.87;;
4885;SDS011;2457;51.788;6.136;2022-08-04T06:27:48;7.70;;;2.40;;
4885;SDS011;2457;51.788;6.136;2022-08-04T06:30:16;7.67;;;2.67;;
4885;SDS011;2457;51.788;6.136;2022-08-04T06:32:45;9.13;;;2.57;;
4885;SDS011;2457;51.788;6.136;2022-08-04T06:35:15;7.87;;;2.33;;
4885;SDS011;2457;51.788;6.136;2022-08-04T06:37:46;9.70;;;2.07;;
4885;SDS011;2457;51.788;6.136;2022-08-04T06:40:19;5.87;;;1.80;;
4885;SDS011;2457;51.788;6.136;2022-08-04T06:42:43;9.10;;;2.70;;
4885;SDS011;2457;51.788;6.136;2022-08-04T06:45:11;10.20;;;2.23;;
4885;SDS011;2457;51.788;6.136;2022-08-04T06:47:40;5.27;;;1.97;;
4885;SDS011;2457;51.788;6.136;2022-08-04T06:50:08;7.10;;;2.23;;
4885;SDS011;2457;51.788;6.136;2022-08-04T06:52:36;7.03;;;2.17;;
4885;SDS011;2457;51.788;6.136;2022-08-04T06:55:04;13.47;;;2.57;;
4885;SDS011;2457;51.788;6.136;2022-08-04T06:57:33;6.83;;;2.13;;
4885;SDS011;2457;51.788;6.136;2022-08-04T07:00:10;6.83;;;2.10;;
4885;SDS011;2457;51.788;6.136;2022-08-04T07:02:47;9.10;;;2.07;;
4885;SDS011;2457;51.788;6.136;2022-08-04T07:05:10;7.60;;;2.70;;
4885;SDS011;2457;51.788;6.136;2022-08-04T07:07:38;9.87;;;1.93;;
4885;SDS011;2457;51.788;6.136;2022-08-04T07:10:06;13.67;;;2.67;;
4885;SDS011;2457;51.788;6.136;2022-08-04T07:12:34;6.83;;;2.07;;
4885;SDS011;2457;51.788;6.136;2022-08-04T07:15:03;6.43;;;2.10;;
4885;SDS011;2457;51.788;6.136;2022-08-04T07:17:30;6.13;;;2.03;;
4885;SDS011;2457;51.788;6.136;2022-08-04T07:19:58;9.40;;;2.40;;
4885;SDS011;2457;51.788;6.136;2022-08-04T07:22:26;8.90;;;2.33;;
4885;SDS011;2457;51.788;6.136;2022-08-04T07:24:55;9.27;;;2.30;;
4885;SDS011;2457;51.788;6.136;2022-08-04T07:27:23;7.17;;;2.57;;
4885;SDS011;2457;51.788;6.136;2022-08-04T07:29:51;9.57;;;3.03;;
4885;SDS011;2457;51.788;6.136;2022-08-04T07:32:19;5.50;;;1.90;;
4885;SDS011;2457;51.788;6.136;2022-08-04T07:34:50;8.10;;;1.97;;
4885;SDS011;2457;51.788;6.136;2022-08-04T07:37:17;7.87;;;2.67;;
4885;SDS011;2457;51.788;6.136;2022-08-04T07:39:45;11.90;;;2.30;;
4885;SDS011;2457;51.788;6.136;2022-08-04T07:42:12;7.67;;;2.03;;
4885;SDS011;2457;51.788;6.136;2022-08-04T07:44:40;8.93;;;2.40;;
4885;SDS011;2457;51.788;6.136;2022-08-04T07:47:07;5.80;;;1.90;;
4885;SDS011;2457;51.788;6.136;2022-08-04T07:49:34;8.57;;;2.40;;
4885;SDS011;2457;51.788;6.136;2022-08-04T07:52:02;6.70;;;2.03;;
4885;SDS011;2457;51.788;6.136;2022-08-04T07:54:30;6.57;;;2.00;;
4885;SDS011;2457;51.788;6.136;2022-08-04T07:56:57;15.80;;;3.00;;
4885;SDS011;2457;51.788;6.136;2022-08-04T07:59:25;7.27;;;2.63;;
4885;SDS011;2457;51.788;6.136;2022-08-04T08:01:52;6.00;;;1.87;;
4885;SDS011;2457;51.788;6.136;2022-08-04T08:04:20;7.33;;;2.20;;
4885;SDS011;2457;51.788;6.136;2022-08-04T08:06:48;4.10;;;1.90;;
4885;SDS011;2457;51.788;6.136;2022-08-04T08:09:18;7.57;;;2.43;;
4885;SDS011;2457;51.788;6.136;2022-08-04T08:11:47;10.40;;;2.30;;
4885;SDS011;2457;51.788;6.136;2022-08-04T08:14:16;4.57;;;1.67;;
4885;SDS011;2457;51.788;6.136;2022-08-04T08:16:43;8.90;;;1.90;;
4885;SDS011;2457;51.788;6.136;2022-08-04T08:19:11;5.13;;;2.27;;
4885;SDS011;2457;51.788;6.136;2022-08-04T08:21:39;8.57;;;2.70;;
4885;SDS011;2457;51.788;6.136;2022-08-04T08:24:07;10.43;;;2.47;;
4885;SDS011;2457;51.788;6.136;2022-08-04T08:26:34;6.00;;;1.87;;
4885;SDS011;2457;51.788;6.136;2022-08-04T08:29:02;7.70;;;2.07;;
4885;SDS011;2457;51.788;6.136;2022-08-04T08:31:29;9.67;;;2.30;;
4885;SDS011;2457;51.788;6.136;2022-08-04T08:33:56;8.10;;;2.20;;
4885;SDS011;2457;51.788;6.136;2022-08-04T08:36:34;5.53;;;1.90;;
4885;SDS011;2457;51.788;6.136;2022-08-04T08:49:45;7.30;;;1.90;;
4885;SDS011;2457;51.788;6.136;2022-08-04T08:52:24;6.73;;;2.70;;
4885;SDS011;2457;51.788;6.136;2022-08-04T08:55:09;4.53;;;1.97;;
4885;SDS011;2457;51.788;6.136;2022-08-04T09:00:31;5.53;;;1.93;;
4885;SDS011;2457;51.788;6.136;2022-08-04T09:03:08;5.50;;;2.00;;
4885;SDS011;2457;51.788;6.136;2022-08-04T09:05:42;4.50;;;2.00;;
4885;SDS011;2457;51.788;6.136;2022-08-04T09:10:53;6.67;;;2.30;;
4885;SDS011;2457;51.788;6.136;2022-08-04T09:16:30;6.30;;;2.30;;
4885;SDS011;2457;51.788;6.136;2022-08-04T09:31:52;7.10;;;2.07;;
4885;SDS011;2457;51.788;6.136;2022-08-04T09:34:24;6.00;;;2.23;;
4885;SDS011;2457;51.788;6.136;2022-08-04T09:39:45;6.33;;;1.50;;
4885;SDS011;2457;51.788;6.136;2022-08-04T09:44:47;6.87;;;2.20;;
4885;SDS011;2457;51.788;6.136;2022-08-04T09:50:01;12.23;;;2.00;;
4885;SDS011;2457;51.788;6.136;2022-08-04T09:53:15;5.10;;;1.80;;
4885;SDS011;2457;51.788;6.136;2022-08-04T09:55:03;15.10;;;1.80;;
4885;SDS011;2457;51.788;6.136;2022-08-04T10:00:09;9.90;;;2.57;;
4885;SDS011;2457;51.788;6.136;2022-08-04T10:02:39;4.40;;;1.77;;
4885;SDS011;2457;51.788;6.136;2022-08-04T10:05:12;6.57;;;2.27;;
4885;SDS011;2457;51.788;6.136;2022-08-04T10:10:24;7.40;;;2.17;;
4885;SDS011;2457;51.788;6.136;2022-08-04T10:13:00;6.90;;;1.90;;
4885;SDS011;2457;51.788;6.136;2022-08-04T10:18:23;6.07;;;2.50;;
4885;SDS011;2457;51.788;6.136;2022-08-04T10:28:45;8.53;;;2.70;;
4885;SDS011;2457;51.788;6.136;2022-08-04T10:31:15;12.67;;;2.87;;
4885;SDS011;2457;51.788;6.136;2022-08-04T10:33:48;13.07;;;2.97;;
4885;SDS011;2457;51.788;6.136;2022-08-04T10:36:15;10.05;;;2.90;;
4885;SDS011;2457;51.788;6.136;2022-08-04T10:38:51;6.73;;;2.33;;
4885;SDS011;2457;51.788;6.136;2022-08-04T10:41:21;8.03;;;2.80;;
4885;SDS011;2457;51.788;6.136;2022-08-04T10:46:34;13.00;;;2.67;;
4885;SDS011;2457;51.788;6.136;2022-08-04T10:49:09;5.23;;;2.27;;
4885;SDS011;2457;51.788;6.136;2022-08-04T10:54:02;6.17;;;2.43;;
4885;SDS011;2457;51.788;6.136;2022-08-04T10:56:31;5.80;;;2.27;;
4885;SDS011;2457;51.788;6.136;2022-08-04T10:59:01;5.37;;;2.10;;
4885;SDS011;2457;51.788;6.136;2022-08-04T11:01:35;6.67;;;2.43;;
4885;SDS011;2457;51.788;6.136;2022-08-04T11:04:04;5.30;;;2.30;;
4885;SDS011;2457;51.788;6.136;2022-08-04T11:06:31;7.77;;;2.10;;
4885;SDS011;2457;51.788;6.136;2022-08-04T11:09:00;9.00;;;2.57;;
4885;SDS011;2457;51.788;6.136;2022-08-04T11:11:36;10.83;;;2.67;;
4885;SDS011;2457;51.788;6.136;2022-08-04T11:16:43;6.30;;;2.83;;
4885;SDS011;2457;51.788;6.136;2022-08-04T11:20:01;8.77;;;2.43;;
4885;SDS011;2457;51.788;6.136;2022-08-04T11:21:42;6.77;;;2.13;;
4885;SDS011;2457;51.788;6.136;2022-08-04T11:24:12;6.13;;;2.20;;
4885;SDS011;2457;51.788;6.136;2022-08-04T11:26:50;5.40;;;2.30;;
4885;SDS011;2457;51.788;6.136;2022-08-04T11:31:47;10.40;;;2.60;;
4885;SDS011;2457;51.788;6.136;2022-08-04T11:34:24;5.23;;;2.03;;
4885;SDS011;2457;51.788;6.136;2022-08-04T11:37:06;6.30;;;2.30;;
4885;SDS011;2457;51.788;6.136;2022-08-04T11:39:34;5.73;;;2.37;;
4885;SDS011;2457;51.788;6.136;2022-08-04T11:42:21;9.00;;;2.80;;
4885;SDS011;2457;51.788;6.136;2022-08-04T11:44:42;9.90;;;2.87;;
4885;SDS011;2457;51.788;6.136;2022-08-04T11:47:18;10.93;;;3.03;;
4885;SDS011;2457;51.788;6.136;2022-08-04T11:49:40;5.73;;;2.87;;
4885;SDS011;2457;51.788;6.136;2022-08-04T11:52:08;6.10;;;2.57;;
4885;SDS011;2457;51.788;6.136;2022-08-04T11:54:37;6.77;;;2.23;;
4885;SDS011;2457;51.788;6.136;2022-08-04T11:57:05;6.53;;;2.47;;
4885;SDS011;2457;51.788;6.136;2022-08-04T11:59:34;9.00;;;2.50;;
4885;SDS011;2457;51.788;6.136;2022-08-04T12:04:49;8.07;;;3.47;;
4885;SDS011;2457;51.788;6.136;2022-08-04T12:07:21;9.03;;;2.50;;
4885;SDS011;2457;51.788;6.136;2022-08-04T12:17:44;10.63;;;3.00;;
4885;SDS011;2457;51.788;6.136;2022-08-04T12:20:10;6.10;;;2.70;;
4885;SDS011;2457;51.788;6.136;2022-08-04T12:22:40;11.50;;;2.60;;
4885;SDS011;2457;51.788;6.136;2022-08-04T12:25:32;7.73;;;2.97;;
4885;SDS011;2457;51.788;6.136;2022-08-04T12:27:40;7.33;;;2.87;;
4885;SDS011;2457;51.788;6.136;2022-08-04T12:30:08;9.43;;;2.83;;
4885;SDS011;2457;51.788;6.136;2022-08-04T12:32:37;8.47;;;2.93;;
4885;SDS011;2457;51.788;6.136;2022-08-04T12:35:20;9.70;;;3.00;;
4885;SDS011;2457;51.788;6.136;2022-08-04T12:38:22;8.43;;;2.67;;
4885;SDS011;2457;51.788;6.136;2022-08-04T12:40:25;10.87;;;3.20;;
4885;SDS011;2457;51.788;6.136;2022-08-04T12:43:05;7.27;;;2.83;;
4885;SDS011;2457;51.788;6.136;2022-08-04T12:45:31;7.80;;;3.07;;
4885;SDS011;2457;51.788;6.136;2022-08-04T12:47:59;9.83;;;3.53;;
4885;SDS011;2457;51.788;6.136;2022-08-04T12:50:28;12.97;;;3.33;;
4885;SDS011;2457;51.788;6.136;2022-08-04T12:52:56;11.30;;;3.50;;
4885;SDS011;2457;51.788;6.136;2022-08-04T12:55:26;8.33;;;3.23;;
4885;SDS011;2457;51.788;6.136;2022-08-04T12:57:53;7.20;;;3.43;;
4885;SDS011;2457;51.788;6.136;2022-08-04T13:00:21;12.13;;;3.10;;
4885;SDS011;2457;51.788;6.136;2022-08-04T13:02:49;10.83;;;3.00;;
4885;SDS011;2457;51.788;6.136;2022-08-04T13:05:17;8.73;;;2.90;;
4885;SDS011;2457;51.788;6.136;2022-08-04T13:07:46;7.30;;;2.60;;
4885;SDS011;2457;51.788;6.136;2022-08-04T13:10:16;11.80;;;3.83;;
4885;SDS011;2457;51.788;6.136;2022-08-04T13:12:55;6.80;;;3.30;;
4885;SDS011;2457;51.788;6.136;2022-08-04T13:15:20;12.83;;;3.37;;
4885;SDS011;2457;51.788;6.136;2022-08-04T13:17:58;6.90;;;2.83;;
4885;SDS011;2457;51.788;6.136;2022-08-04T13:20:26;17.53;;;3.40;;
4885;SDS011;2457;51.788;6.136;2022-08-04T13:23:07;12.70;;;3.00;;
4885;SDS011;2457;51.788;6.136;2022-08-04T13:25:39;8.23;;;2.73;;
4885;SDS011;2457;51.788;6.136;2022-08-04T13:28:07;19.30;;;3.50;;
4885;SDS011;2457;51.788;6.136;2022-08-04T13:30:34;6.40;;;2.60;;
4885;SDS011;2457;51.788;6.136;2022-08-04T13:33:01;12.20;;;3.63;;
4885;SDS011;2457;51.788;6.136;2022-08-04T13:35:30;7.60;;;3.50;;
4885;SDS011;2457;51.788;6.136;2022-08-04T13:37:58;13.80;;;4.23;;
4885;SDS011;2457;51.788;6.136;2022-08-04T13:40:25;7.73;;;3.33;;
4885;SDS011;2457;51.788;6.136;2022-08-04T13:42:53;9.10;;;2.90;;
4885;SDS011;2457;51.788;6.136;2022-08-04T13:45:21;7.90;;;3.20;;
4885;SDS011;2457;51.788;6.136;2022-08-04T13:47:50;11.60;;;3.43;;
4885;SDS011;2457;51.788;6.136;2022-08-04T13:52:50;12.23;;;2.50;;
4885;SDS011;2457;51.788;6.136;2022-08-04T13:55:33;8.07;;;2.73;;
4885;SDS011;2457;51.788;6.136;2022-08-04T13:58:06;8.13;;;3.30;;
4885;SDS011;2457;51.788;6.136;2022-08-04T14:00:41;9.43;;;3.37;;
4885;SDS011;2457;51.788;6.136;2022-08-04T14:03:05;8.00;;;3.00;;
4885;SDS011;2457;51.788;6.136;2022-08-04T14:05:33;9.17;;;2.97;;
4885;SDS011;2457;51.788;6.136;2022-08-04T14:08:07;8.50;;;3.40;;
4885;SDS011;2457;51.788;6.136;2022-08-04T14:10:35;6.77;;;3.10;;
4885;SDS011;2457;51.788;6.136;2022-08-04T14:13:03;7.50;;;2.90;;
4885;SDS011;2457;51.788;6.136;2022-08-04T14:21:29;5.80;;;2.80;;
4885;SDS011;2457;51.788;6.136;2022-08-04T14:23:12;10.83;;;3.07;;
4885;SDS011;2457;51.788;6.136;2022-08-04T14:25:39;9.20;;;2.50;;
4885;SDS011;2457;51.788;6.136;2022-08-04T14:28:07;13.23;;;3.27;;
4885;SDS011;2457;51.788;6.136;2022-08-04T14:30:35;10.50;;;4.50;;
4885;SDS011;2457;51.788;6.136;2022-08-04T14:35:32;9.10;;;2.90;;
4885;SDS011;2457;51.788;6.136;2022-08-04T14:38:01;10.43;;;2.90;;
4885;SDS011;2457;51.788;6.136;2022-08-04T14:40:29;6.73;;;2.77;;
4885;SDS011;2457;51.788;6.136;2022-08-04T14:42:57;8.27;;;2.70;;
4885;SDS011;2457;51.788;6.136;2022-08-04T14:45:29;5.33;;;2.20;;
4885;SDS011;2457;51.788;6.136;2022-08-04T14:47:56;6.40;;;3.20;;
4885;SDS011;2457;51.788;6.136;2022-08-04T14:50:34;11.43;;;2.20;;
4885;SDS011;2457;51.788;6.136;2022-08-04T14:53:02;5.97;;;2.20;;
4885;SDS011;2457;51.788;6.136;2022-08-04T14:55:30;6.97;;;2.87;;
4885;SDS011;2457;51.788;6.136;2022-08-04T14:57:57;9.80;;;2.67;;
4885;SDS011;2457;51.788;6.136;2022-08-04T15:00:25;5.20;;;1.77;;
4885;SDS011;2457;51.788;6.136;2022-08-04T15:02:53;5.20;;;2.20;;
4885;SDS011;2457;51.788;6.136;2022-08-04T15:05:21;6.87;;;2.50;;
4885;SDS011;2457;51.788;6.136;2022-08-04T15:07:49;6.30;;;2.20;;
4885;SDS011;2457;51.788;6.136;2022-08-04T15:10:18;5.33;;;2.30;;
4885;SDS011;2457;51.788;6.136;2022-08-04T15:12:46;10.40;;;3.20;;
4885;SDS011;2457;51.788;6.136;2022-08-04T15:15:13;5.70;;;2.63;;
4885;SDS011;2457;51.788;6.136;2022-08-04T15:17:41;6.33;;;2.30;;
4885;SDS011;2457;51.788;6.136;2022-08-04T15:20:09;24.47;;;2.97;;
4885;SDS011;2457;51.788;6.136;2022-08-04T15:22:36;8.93;;;3.60;;
4885;SDS011;2457;51.788;6.136;2022-08-04T15:25:04;8.57;;;3.60;;
4885;SDS011;2457;51.788;6.136;2022-08-04T15:27:32;6.40;;;2.90;;
4885;SDS011;2457;51.788;6.136;2022-08-04T15:30:01;6.87;;;2.87;;
4885;SDS011;2457;51.788;6.136;2022-08-04T15:32:30;8.83;;;2.80;;
4885;SDS011;2457;51.788;6.136;2022-08-04T15:35:10;12.90;;;3.30;;
4885;SDS011;2457;51.788;6.136;2022-08-04T15:37:48;6.37;;;2.50;;
4885;SDS011;2457;51.788;6.136;2022-08-04T15:40:13;9.90;;;2.90;;
4885;SDS011;2457;51.788;6.136;2022-08-04T15:42:48;8.03;;;2.70;;
4885;SDS011;2457;51.788;6.136;2022-08-04T15:50:32;8.60;;;3.50;;
4885;SDS011;2457;51.788;6.136;2022-08-04T15:53:00;9.77;;;2.77;;
4885;SDS011;2457;51.788;6.136;2022-08-04T15:55:34;5.20;;;2.50;;
4885;SDS011;2457;51.788;6.136;2022-08-04T15:58:03;10.57;;;2.70;;
4885;SDS011;2457;51.788;6.136;2022-08-04T16:01:12;7.53;;;2.70;;
4885;SDS011;2457;51.788;6.136;2022-08-04T16:02:59;9.37;;;3.00;;
4885;SDS011;2457;51.788;6.136;2022-08-04T16:08:09;12.43;;;3.47;;
4885;SDS011;2457;51.788;6.136;2022-08-04T16:10:38;9.43;;;3.23;;
4885;SDS011;2457;51.788;6.136;2022-08-04T16:13:07;8.33;;;2.50;;
4885;SDS011;2457;51.788;6.136;2022-08-04T16:15:58;5.20;;;2.23;;
4885;SDS011;2457;51.788;6.136;2022-08-04T16:20:54;4.33;;;2.00;;
4885;SDS011;2457;51.788;6.136;2022-08-04T16:25:53;4.37;;;1.63;;
4885;SDS011;2457;51.788;6.136;2022-08-04T16:28:36;5.57;;;1.93;;
4885;SDS011;2457;51.788;6.136;2022-08-04T16:31:06;4.90;;;1.93;;
4885;SDS011;2457;51.788;6.136;2022-08-04T16:33:33;7.73;;;2.40;;
4885;SDS011;2457;51.788;6.136;2022-08-04T16:36:01;7.40;;;2.23;;
4885;SDS011;2457;51.788;6.136;2022-08-04T16:38:29;7.70;;;2.07;;
4885;SDS011;2457;51.788;6.136;2022-08-04T16:40:57;6.00;;;2.30;;
4885;SDS011;2457;51.788;6.136;2022-08-04T16:43:28;6.60;;;2.40;;
4885;SDS011;2457;51.788;6.136;2022-08-04T16:45:59;6.10;;;1.93;;
4885;SDS011;2457;51.788;6.136;2022-08-04T16:48:30;7.23;;;2.53;;
4885;SDS011;2457;51.788;6.136;2022-08-04T16:51:02;9.43;;;2.47;;
4885;SDS011;2457;51.788;6.136;2022-08-04T16:53:32;5.93;;;2.30;;
4885;SDS011;2457;51.788;6.136;2022-08-04T16:55:59;5.47;;;1.90;;
4885;SDS011;2457;51.788;6.136;2022-08-04T16:58:30;6.63;;;1.90;;
4885;SDS011;2457;51.788;6.136;2022-08-04T17:01:05;4.10;;;1.60;;
4885;SDS011;2457;51.788;6.136;2022-08-04T17:03:27;5.27;;;1.63;;
4885;SDS011;2457;51.788;6.136;2022-08-04T17:06:08;6.43;;;2.53;;
4885;SDS011;2457;51.788;6.136;2022-08-04T17:08:32;4.80;;;1.73;;
4885;SDS011;2457;51.788;6.136;2022-08-04T17:11:00;5.33;;;1.87;;
4885;SDS011;2457;51.788;6.136;2022-08-04T17:13:29;8.57;;;1.90;;
4885;SDS011;2457;51.788;6.136;2022-08-04T17:15:57;5.90;;;2.07;;
4885;SDS011;2457;51.788;6.136;2022-08-04T17:18:27;5.13;;;1.60;;
4885;SDS011;2457;51.788;6.136;2022-08-04T17:20:54;6.43;;;1.90;;
4885;SDS011;2457;51.788;6.136;2022-08-04T17:25:54;6.53;;;2.40;;
4885;SDS011;2457;51.788;6.136;2022-08-04T17:28:22;4.17;;;1.80;;
4885;SDS011;2457;51.788;6.136;2022-08-04T17:30:50;5.10;;;1.83;;
4885;SDS011;2457;51.788;6.136;2022-08-04T17:33:17;3.80;;;1.70;;
4885;SDS011;2457;51.788;6.136;2022-08-04T17:35:45;7.93;;;1.97;;
4885;SDS011;2457;51.788;6.136;2022-08-04T17:38:12;6.00;;;1.90;;
4885;SDS011;2457;51.788;6.136;2022-08-04T17:40:50;5.47;;;1.63;;
4885;SDS011;2457;51.788;6.136;2022-08-04T17:43:18;5.97;;;1.97;;
4885;SDS011;2457;51.788;6.136;2022-08-04T17:45:45;8.23;;;1.90;;
4885;SDS011;2457;51.788;6.136;2022-08-04T17:48:19;5.07;;;1.80;;
4885;SDS011;2457;51.788;6.136;2022-08-04T17:50:48;5.73;;;1.50;;
4885;SDS011;2457;51.788;6.136;2022-08-04T17:53:15;5.60;;;1.90;;
4885;SDS011;2457;51.788;6.136;2022-08-04T17:55:43;5.20;;;1.80;;
4885;SDS011;2457;51.788;6.136;2022-08-04T17:58:16;5.97;;;2.07;;
4885;SDS011;2457;51.788;6.136;2022-08-04T18:00:41;11.93;;;2.40;;
4885;SDS011;2457;51.788;6.136;2022-08-04T18:03:21;5.47;;;1.60;;
4885;SDS011;2457;51.788;6.136;2022-08-04T18:05:48;6.17;;;2.30;;
4885;SDS011;2457;51.788;6.136;2022-08-04T18:08:17;5.10;;;1.87;;
4885;SDS011;2457;51.788;6.136;2022-08-04T18:10:46;4.63;;;1.50;;
4885;SDS011;2457;51.788;6.136;2022-08-04T18:13:13;7.20;;;1.73;;
4885;SDS011;2457;51.788;6.136;2022-08-04T18:15:41;3.10;;;1.20;;
4885;SDS011;2457;51.788;6.136;2022-08-04T18:18:18;4.50;;;1.50;;
4885;SDS011;2457;51.788;6.136;2022-08-04T18:20:46;4.97;;;1.70;;
4885;SDS011;2457;51.788;6.136;2022-08-04T18:23:14;5.00;;;1.40;;
4885;SDS011;2457;51.788;6.136;2022-08-04T18:25:44;10.80;;;1.93;;
4885;SDS011;2457;51.788;6.136;2022-08-04T18:28:12;3.53;;;1.30;;
4885;SDS011;2457;51.788;6.136;2022-08-04T18:30:40;4.90;;;1.60;;
4885;SDS011;2457;51.788;6.136;2022-08-04T18:33:07;3.87;;;1.40;;
4885;SDS011;2457;51.788;6.136;2022-08-04T18:35:34;3.73;;;1.20;;
4885;SDS011;2457;51.788;6.136;2022-08-04T18:38:02;4.13;;;1.60;;
4885;SDS011;2457;51.788;6.136;2022-08-04T18:40:29;6.13;;;1.47;;
4885;SDS011;2457;51.788;6.136;2022-08-04T18:42:56;3.87;;;1.50;;
4885;SDS011;2457;51.788;6.136;2022-08-04T18:45:24;5.23;;;1.80;;
4885;SDS011;2457;51.788;6.136;2022-08-04T18:47:51;3.73;;;1.33;;
4885;SDS011;2457;51.788;6.136;2022-08-04T18:50:18;5.83;;;1.60;;
4885;SDS011;2457;51.788;6.136;2022-08-04T18:52:46;4.30;;;1.77;;
4885;SDS011;2457;51.788;6.136;2022-08-04T18:55:13;6.67;;;1.97;;